Time,TemperatureF,DewpointF,PressureIn,WindDirection,WindDirectionDegrees,WindSpeedMPH,WindSpeedGustMPH,Humidity,HourlyPrecipIn,Conditions,Clouds,dailyrainin,SoftwareType,DateUTC
2013-06-30 00:00:00,56.2,48.7,29.82,NNW,344,5.8,5.8,76,0.00,CLR,,0.03,WeatherDisplay:10.37,2013-06-30 06:00:00,
2013-06-30 00:05:00,56.0,48.5,29.82,NNW,347,4.6,4.6,76,0.00,RA,,0.00,WeatherDisplay:10.37,2013-06-30 06:05:00,
2013-06-30 00:10:00,55.7,48.2,29.82,NNW,344,3.5,3.5,76,0.00,CLR,,0.00,WeatherDisplay:10.37,2013-06-30 06:10:00,
2013-06-30 00:15:00,55.7,48.2,29.89,NNW,344,2.3,2.3,76,0.00,CLR,,0.00,WeatherDisplay:10.37,2013-06-30 06:15:00,
2013-06-30 00:20:00,55.7,47.9,29.89,NNW,344,3.5,3.5,75,0.00,CLR,,0.00,WeatherDisplay:10.37,2013-06-30 06:20:00,
2013-06-30 00:25:00,55.9,48.1,29.89,NNW,344,4.6,4.6,75,0.00,CLR,,0.00,WeatherDisplay:10.37,2013-06-30 06:25:00,
2013-06-30 00:30:00,55.9,48.1,29.89,NNW,344,2.3,2.3,75,0.00,CLR,,0.00,WeatherDisplay:10.37,2013-06-30 06:30:00,
2013-06-30 00:35:00,55.7,47.9,29.89,NNW,344,3.5,3.5,75,0.00,CLR,,0.00,WeatherDisplay:10.37,2013-06-30 06:35:00,
2013-06-30 00:40:00,55.7,47.9,29.89,NNW,344,2.3,2.3,75,0.00,CLR,,0.00,WeatherDisplay:10.37,2013-06-30 06:40:00,
2013-06-30 00:45:00,55.6,47.8,29.89,NNW,344,3.5,3.5,75,0.00,CLR,,0.00,WeatherDisplay:10.37,2013-06-30 06:45:00,
2013-06-30 00:50:00,55.6,47.8,29.89,NNW,344,0.0,0.0,75,0.00,CLR,,0.00,WeatherDisplay:10.37,2013-06-30 06:50:00,
2013-06-30 00:55:00,55.4,47.6,29.89,NNW,344,2.3,2.3,75,0.00,CLR,,0.00,WeatherDisplay:10.37,2013-06-30 06:55:00,
2013-06-30 01:00:00,55.4,47.6,29.89,NNW,344,2.3,2.3,75,0.00,CLR,,0.00,WeatherDisplay:10.37,2013-06-30 07:00:00,
2013-06-30 01:05:00,55.4,47.6,29.89,NNW,344,2.3,2.3,75,0.00,CLR,,0.00,WeatherDisplay:10.37,2013-06-30 07:05:00,
2013-06-30 01:10:00,55.3,47.9,29.89,NNW,344,2.3,2.3,76,0.00,CLR,,0.00,WeatherDisplay:10.37,2013-06-30 07:10:00,
2013-06-30 01:15:00,55.1,47.7,29.91,NNW,344,2.3,2.3,76,0.00,CLR,,0.00,WeatherDisplay:10.37,2013-06-30 07:15:00,
2013-06-30 01:20:00,55.0,47.6,29.91,NNW,344,1.2,0.0,76,0.00,CLR,,0.00,WeatherDisplay:10.37,2013-06-30 07:20:00,
2013-06-30 01:25:00,55.1,47.7,29.91,NW,307,3.5,3.5,76,0.00,CLR,,0.00,WeatherDisplay:10.37,2013-06-30 07:25:00,
2013-06-30 01:30:00,55.7,47.9,29.90,NW,307,0.0,0.0,75,0.00,CLR,,0.00,WeatherDisplay:10.37,2013-06-30 07:30:00,
2013-06-30 01:35:00,55.7,47.9,29.90,NW,307,2.3,2.3,75,0.00,CLR,,0.00,WeatherDisplay:10.37,2013-06-30 07:35:00,
2013-06-30 01:40:00,55.7,47.9,29.90,NW,307,3.5,3.5,75,0.00,CLR,,0.00,WeatherDisplay:10.37,2013-06-30 07:40:00,
2013-06-30 01:45:00,55.7,47.9,29.89,West,278,1.2,0.0,75,0.00,CLR,,0.00,WeatherDisplay:10.37,2013-06-30 07:45:00,
2013-06-30 01:50:00,55.7,47.5,29.89,ENE,66,3.5,3.5,74,0.00,CLR,,0.00,WeatherDisplay:10.37,2013-06-30 07:50:00,
2013-06-30 01:55:00,55.1,47.7,29.89,ENE,66,1.2,0.0,76,0.00,CLR,,0.00,WeatherDisplay:10.37,2013-06-30 07:55:00,
2013-06-30 02:00:00,54.8,47.7,29.88,ENE,66,3.0,3.0,77,0.00,CLR,,0.00,WeatherDisplay:10.37,2013-06-30 08:00:00,
2013-06-30 02:05:00,54.5,47.4,29.88,NNE,18,3.5,3.5,77,0.00,CLR,,0.00,WeatherDisplay:10.37,2013-06-30 08:05:00,
2013-06-30 02:10:00,54.2,47.5,29.88,NNE,18,0.0,0.0,78,0.00,CLR,,0.00,WeatherDisplay:10.37,2013-06-30 08:10:00,
2013-06-30 02:15:00,54.1,47.4,29.90,NNE,18,0.0,0.0,78,0.00,CLR,,0.00,WeatherDisplay:10.37,2013-06-30 08:15:00,
2013-06-30 02:20:00,53.9,47.5,29.90,NNE,18,1.2,1.2,79,0.00,CLR,,0.00,WeatherDisplay:10.37,2013-06-30 08:20:00,
2013-06-30 02:25:00,54.1,47.7,29.90,NW,314,2.3,2.3,79,0.00,CLR,,0.00,WeatherDisplay:10.37,2013-06-30 08:25:00,
2013-06-30 02:30:00,54.5,48.1,29.89,NW,314,3.5,3.5,79,0.00,CLR,,0.00,WeatherDisplay:10.37,2013-06-30 08:30:00,
2013-06-30 02:35:00,54.8,48.1,29.89,NW,314,1.2,0.0,78,0.00,CLR,,0.00,WeatherDisplay:10.37,2013-06-30 08:35:00,
2013-06-30 02:40:00,54.8,48.1,29.89,NW,314,3.5,3.5,78,0.00,CLR,,0.00,WeatherDisplay:10.37,2013-06-30 08:40:00,
2013-06-30 02:45:00,54.5,47.8,29.90,NW,314,2.3,2.3,78,0.00,CLR,,0.00,WeatherDisplay:10.37,2013-06-30 08:45:00,
2013-06-30 02:50:00,54.2,47.1,29.90,NW,314,2.3,2.3,77,0.00,CLR,,0.00,WeatherDisplay:10.37,2013-06-30 08:50:00,
2013-06-30 02:55:00,53.9,47.2,29.90,NW,314,0.0,0.0,78,0.00,CLR,,0.00,WeatherDisplay:10.37,2013-06-30 08:55:00,
2013-06-30 03:00:00,53.6,47.2,29.91,NW,314,0.0,0.1,79,0.00,CLR,,0.00,WeatherDisplay:10.37,2013-06-30 09:00:00,
2013-06-30 03:05:00,53.5,47.5,29.91,NW,314,1.2,1.2,80,0.00,CLR,,0.00,WeatherDisplay:10.37,2013-06-30 09:05:00,
2013-06-30 03:10:00,53.3,47.3,29.91,NW,314,2.3,2.3,80,0.00,CLR,,0.00,WeatherDisplay:10.37,2013-06-30 09:10:00,
2013-06-30 03:15:00,53.3,47.3,29.89,West,275,5.8,5.8,80,0.00,CLR,,0.00,WeatherDisplay:10.37,2013-06-30 09:15:00,
2013-06-30 03:20:00,53.8,47.8,29.89,WSW,248,5.8,5.8,80,0.00,CLR,,0.00,WeatherDisplay:10.37,2013-06-30 09:20:00,
2013-06-30 03:25:00,53.9,47.5,29.89,West,273,3.5,3.5,79,0.00,CLR,,0.00,WeatherDisplay:10.37,2013-06-30 09:25:00,
2013-06-30 03:30:00,53.9,47.5,29.88,West,273,3.5,3.5,79,0.00,CLR,,0.00,WeatherDisplay:10.37,2013-06-30 09:30:00,
2013-06-30 03:35:00,53.5,47.1,29.88,West,273,2.3,2.3,79,0.00,CLR,,0.00,WeatherDisplay:10.37,2013-06-30 09:35:00,
2013-06-30 03:40:00,53.2,47.2,29.88,West,273,0.0,0.0,80,0.00,CLR,,0.00,WeatherDisplay:10.37,2013-06-30 09:40:00,
2013-06-30 03:45:00,52.9,46.9,29.89,West,273,1.2,1.2,80,0.00,CLR,,0.00,WeatherDisplay:10.37,2013-06-30 09:45:00,
2013-06-30 03:50:00,52.6,46.9,29.89,West,273,2.3,2.3,81,0.00,CLR,,0.00,WeatherDisplay:10.37,2013-06-30 09:50:00,
2013-06-30 03:55:00,52.5,46.8,29.89,West,273,1.2,1.2,81,0.00,CLR,,0.00,WeatherDisplay:10.37,2013-06-30 09:55:00,
2013-06-30 04:00:00,52.3,47.0,29.90,West,273,0.0,0.0,82,0.00,CLR,,0.00,WeatherDisplay:10.37,2013-06-30 10:00:00,
2013-06-30 04:05:00,52.5,47.2,29.90,West,273,1.2,1.2,82,0.00,CLR,,0.00,WeatherDisplay:10.37,2013-06-30 10:05:00,
2013-06-30 04:10:00,52.5,47.2,29.90,West,273,0.0,0.0,82,0.00,CLR,,0.00,WeatherDisplay:10.37,2013-06-30 10:10:00,
2013-06-30 04:15:00,52.5,47.2,29.92,West,273,3.5,3.5,82,0.00,CLR,,0.00,WeatherDisplay:10.37,2013-06-30 10:15:00,
2013-06-30 04:20:00,52.3,47.3,29.92,West,273,1.2,1.2,83,0.00,CLR,,0.00,WeatherDisplay:10.37,2013-06-30 10:20:00,
2013-06-30 04:25:00,52.3,47.3,29.92,West,273,1.2,1.2,83,0.00,CLR,,0.00,WeatherDisplay:10.37,2013-06-30 10:25:00,
2013-06-30 04:30:00,52.2,47.2,29.94,West,273,1.2,1.2,83,0.00,CLR,,0.00,WeatherDisplay:10.37,2013-06-30 10:30:00,
2013-06-30 04:35:00,52.2,47.2,29.94,West,273,0.0,0.0,83,0.00,CLR,,0.00,WeatherDisplay:10.37,2013-06-30 10:35:00,
2013-06-30 04:40:00,52.2,47.2,29.94,West,273,1.2,1.2,83,0.00,CLR,,0.00,WeatherDisplay:10.37,2013-06-30 10:40:00,
2013-06-30 04:45:00,52.2,47.2,29.94,West,273,0.0,0.0,83,0.00,CLR,,0.00,WeatherDisplay:10.37,2013-06-30 10:45:00,
2013-06-30 04:50:00,52.3,47.3,29.94,West,273,0.0,0.0,83,0.00,CLR,,0.00,WeatherDisplay:10.37,2013-06-30 10:50:00,
2013-06-30 04:55:00,52.2,47.2,29.94,West,273,1.2,0.0,83,0.00,CLR,,0.00,WeatherDisplay:10.37,2013-06-30 10:55:00,
2013-06-30 05:00:00,52.2,47.2,29.93,West,273,1.2,1.2,83,0.00,CLR,,0.00,WeatherDisplay:10.37,2013-06-30 11:00:00,
2013-06-30 05:05:00,52.2,47.2,29.93,West,273,0.0,0.0,83,0.00,CLR,,0.00,WeatherDisplay:10.37,2013-06-30 11:05:00,
2013-06-30 05:10:00,52.2,47.2,29.93,West,273,2.3,2.3,83,0.00,CLR,,0.00,WeatherDisplay:10.37,2013-06-30 11:10:00,
2013-06-30 05:15:00,52.2,47.5,29.88,West,273,1.2,0.0,84,0.00,CLR,,0.00,WeatherDisplay:10.37,2013-06-30 11:15:00,
2013-06-30 05:20:00,52.2,47.5,29.88,West,273,2.3,2.3,84,0.00,CLR,,0.00,WeatherDisplay:10.37,2013-06-30 11:20:00,
2013-06-30 05:25:00,52.2,47.5,29.88,West,273,1.2,0.0,84,0.00,CLR,,0.00,WeatherDisplay:10.37,2013-06-30 11:25:00,
2013-06-30 05:30:00,52.2,47.5,29.88,West,273,2.3,0.0,84,0.00,CLR,,0.00,WeatherDisplay:10.37,2013-06-30 11:30:00,
2013-06-30 05:35:00,52.3,47.9,29.88,West,273,3.5,3.5,85,0.00,CLR,,0.00,WeatherDisplay:10.37,2013-06-30 11:35:00,
2013-06-30 05:40:00,52.5,48.1,29.88,West,273,3.5,3.5,85,0.00,CLR,,0.00,WeatherDisplay:10.37,2013-06-30 11:40:00,
2013-06-30 05:45:00,52.6,47.9,29.86,West,273,3.0,3.0,84,0.00,CLR,,0.00,WeatherDisplay:10.37,2013-06-30 11:45:00,
2013-06-30 05:50:00,52.8,48.1,29.86,West,273,2.0,2.0,84,0.00,CLR,,0.00,WeatherDisplay:10.37,2013-06-30 11:50:00,
2013-06-30 05:55:00,52.8,48.4,29.86,West,276,3.5,3.5,85,0.00,CLR,,0.00,WeatherDisplay:10.37,2013-06-30 11:55:00,
2013-06-30 06:00:00,52.8,48.4,29.86,West,279,3.5,3.5,85,0.00,CLR,,0.00,WeatherDisplay:10.37,2013-06-30 12:00:00,
2013-06-30 06:05:00,52.8,48.4,29.86,West,279,0.0,0.0,85,0.00,CLR,,0.00,WeatherDisplay:10.37,2013-06-30 12:05:00,
2013-06-30 06:10:00,52.8,48.4,29.86,West,280,2.3,2.3,85,0.00,CLR,,0.00,WeatherDisplay:10.37,2013-06-30 12:10:00,
2013-06-30 06:15:00,52.8,48.7,29.85,West,280,2.3,2.3,86,0.00,CLR,,0.00,WeatherDisplay:10.37,2013-06-30 12:15:00,
2013-06-30 06:20:00,52.8,48.7,29.85,West,280,0.0,0.0,86,0.00,CLR,,0.00,WeatherDisplay:10.37,2013-06-30 12:20:00,
2013-06-30 06:25:00,52.8,48.7,29.85,West,280,0.0,0.0,86,0.00,CLR,,0.00,WeatherDisplay:10.37,2013-06-30 12:25:00,
2013-06-30 06:30:00,52.9,48.5,29.85,West,279,1.2,1.2,85,0.00,CLR,,0.00,WeatherDisplay:10.37,2013-06-30 12:30:00,
2013-06-30 06:35:00,53.1,48.7,29.85,West,280,2.3,2.3,85,0.00,CLR,,0.00,WeatherDisplay:10.37,2013-06-30 12:35:00,
2013-06-30 06:40:00,53.1,49.0,29.85,NNE,28,5.0,5.0,86,0.00,CLR,,0.00,WeatherDisplay:10.37,2013-06-30 12:40:00,
2013-06-30 06:45:00,53.1,49.0,29.85,NNE,22,0.0,0.0,86,0.00,CLR,,0.00,WeatherDisplay:10.37,2013-06-30 12:45:00,
2013-06-30 06:50:00,53.2,48.8,29.85,NNE,22,1.2,1.2,85,0.00,CLR,,0.00,WeatherDisplay:10.37,2013-06-30 12:50:00,
2013-06-30 06:55:00,53.2,49.1,29.85,NE,40,11.5,11.5,86,0.00,CLR,,0.00,WeatherDisplay:10.37,2013-06-30 12:55:00,
2013-06-30 07:00:00,53.2,49.1,29.85,NNE,28,0.0,0.0,86,0.00,CLR,,0.00,WeatherDisplay:10.37,2013-06-30 13:00:00,
2013-06-30 07:05:00,53.2,49.1,29.85,NNE,28,0.0,0.0,86,0.00,CLR,,0.00,WeatherDisplay:10.37,2013-06-30 13:05:00,
2013-06-30 07:10:00,53.2,49.1,29.85,NNE,28,2.3,2.3,86,0.00,CLR,,0.00,WeatherDisplay:10.37,2013-06-30 13:10:00,
2013-06-30 07:15:00,53.9,49.2,29.86,SSW,211,5.8,5.8,84,0.00,CLR,,0.00,WeatherDisplay:10.37,2013-06-30 13:15:00,
2013-06-30 07:20:00,54.5,49.8,29.86,SW,227,5.0,5.0,84,0.00,CLR,,0.00,WeatherDisplay:10.37,2013-06-30 13:20:00,
2013-06-30 07:25:00,54.8,50.1,29.86,WSW,247,5.0,5.0,84,0.00,CLR,,0.00,WeatherDisplay:10.37,2013-06-30 13:25:00,
2013-06-30 07:30:00,55.4,51.0,29.84,SW,225,5.8,5.8,85,0.00,CLR,,0.00,WeatherDisplay:10.37,2013-06-30 13:30:00,
2013-06-30 07:35:00,55.9,50.8,29.84,West,264,3.5,3.5,83,0.00,CLR,,0.00,WeatherDisplay:10.37,2013-06-30 13:35:00,
2013-06-30 07:40:00,56.2,51.1,29.84,West,279,6.0,6.0,83,0.00,CLR,,0.00,WeatherDisplay:10.37,2013-06-30 13:40:00,
2013-06-30 07:45:00,56.5,51.4,29.82,West,276,3.5,3.5,83,0.00,CLR,,0.00,WeatherDisplay:10.37,2013-06-30 13:45:00,
2013-06-30 07:50:00,56.7,50.9,29.82,West,276,3.5,3.5,81,0.00,CLR,,0.00,WeatherDisplay:10.37,2013-06-30 13:50:00,
2013-06-30 07:55:00,57.2,50.4,29.82,WSW,256,5.8,5.8,78,0.00,CLR,,0.00,WeatherDisplay:10.37,2013-06-30 13:55:00,
2013-06-30 08:00:00,58.3,49.7,29.82,SW,214,6.9,6.9,73,0.00,CLR,,0.00,WeatherDisplay:10.37,2013-06-30 14:00:00,
2013-06-30 08:05:00,59.6,50.9,29.82,SSW,204,10.4,10.4,73,0.00,CLR,,0.00,WeatherDisplay:10.37,2013-06-30 14:05:00,
2013-06-30 08:10:00,60.2,50.8,29.82,West,271,7.0,7.0,71,0.00,CLR,,0.00,WeatherDisplay:10.37,2013-06-30 14:10:00,
2013-06-30 08:15:00,60.9,50.3,29.83,WNW,289,5.0,5.0,68,0.00,CLR,,0.00,WeatherDisplay:10.37,2013-06-30 14:15:00,
2013-06-30 08:20:00,61.3,49.8,29.83,West,271,1.2,1.2,66,0.00,CLR,,0.00,WeatherDisplay:10.37,2013-06-30 14:20:00,
2013-06-30 08:25:00,62.1,51.4,29.83,NNW,331,0.0,0.0,68,0.00,CLR,,0.00,WeatherDisplay:10.37,2013-06-30 14:25:00,
2013-06-30 08:30:00,62.6,49.0,29.82,North,1,1.2,0.0,61,0.00,CLR,,0.00,WeatherDisplay:10.37,2013-06-30 14:30:00,
2013-06-30 08:35:00,63.2,51.6,29.82,NE,43,3.5,3.5,66,0.00,CLR,,0.00,WeatherDisplay:10.37,2013-06-30 14:35:00,
2013-06-30 08:40:00,63.1,52.0,29.82,North,355,4.6,4.6,67,0.00,CLR,,0.00,WeatherDisplay:10.37,2013-06-30 14:40:00,
2013-06-30 08:45:00,62.9,52.6,29.81,NNE,21,5.0,5.0,69,0.00,CLR,,0.00,WeatherDisplay:10.37,2013-06-30 14:45:00,
2013-06-30 08:50:00,62.9,53.0,29.81,North,7,6.9,6.9,70,0.00,CLR,,0.00,WeatherDisplay:10.37,2013-06-30 14:50:00,
2013-06-30 08:55:00,62.7,52.0,29.81,NNE,16,6.9,6.9,68,0.00,CLR,,0.00,WeatherDisplay:10.37,2013-06-30 14:55:00,
2013-06-30 09:00:00,62.7,52.4,29.82,NNE,18,10.0,10.0,69,0.00,CLR,,0.00,WeatherDisplay:10.37,2013-06-30 15:00:00,
2013-06-30 09:05:00,63.5,53.1,29.82,NNE,31,11.5,11.5,69,0.00,CLR,,0.00,WeatherDisplay:10.37,2013-06-30 15:05:00,
2013-06-30 09:10:00,64.0,52.8,29.82,NNE,33,8.1,8.1,67,0.00,CLR,,0.00,WeatherDisplay:10.37,2013-06-30 15:10:00,
2013-06-30 09:15:00,64.2,52.2,29.83,NE,50,10.4,10.4,65,0.00,CLR,,0.00,WeatherDisplay:10.37,2013-06-30 15:15:00,
2013-06-30 09:20:00,65.8,53.7,29.83,NE,56,8.1,8.1,65,0.00,CLR,,0.00,WeatherDisplay:10.37,2013-06-30 15:20:00,
2013-06-30 09:25:00,66.8,53.4,29.83,ENE,59,11.0,11.0,62,0.00,CLR,,0.00,WeatherDisplay:10.37,2013-06-30 15:25:00,
2013-06-30 09:30:00,67.6,52.8,29.79,ENE,76,8.1,8.1,59,0.00,CLR,,0.00,WeatherDisplay:10.37,2013-06-30 15:30:00,
2013-06-30 09:35:00,67.8,52.9,29.79,ENE,59,6.9,6.9,59,0.00,CLR,,0.00,WeatherDisplay:10.37,2013-06-30 15:35:00,
2013-06-30 09:40:00,68.9,53.0,29.79,East,91,8.1,8.1,57,0.00,CLR,,0.00,WeatherDisplay:10.37,2013-06-30 15:40:00,
2013-06-30 09:45:00,68.3,51.5,29.79,ESE,103,6.9,6.9,55,0.00,CLR,,0.00,WeatherDisplay:10.37,2013-06-30 15:45:00,
2013-06-30 09:50:00,67.6,50.9,29.79,East,84,8.1,8.1,55,0.00,CLR,,0.00,WeatherDisplay:10.37,2013-06-30 15:50:00,
2013-06-30 09:55:00,67.1,48.9,29.79,NE,49,10.0,10.0,52,0.00,CLR,,0.00,WeatherDisplay:10.37,2013-06-30 15:55:00,
2013-06-30 10:00:00,66.8,50.6,29.80,East,81,11.5,11.5,56,0.00,CLR,,0.00,WeatherDisplay:10.37,2013-06-30 16:00:00,
2013-06-30 10:05:00,66.1,50.4,29.80,NE,55,11.5,11.5,57,0.00,CLR,,0.00,WeatherDisplay:10.37,2013-06-30 16:05:00,
2013-06-30 10:10:00,65.8,50.1,29.80,East,80,8.1,8.1,57,0.00,CLR,,0.00,WeatherDisplay:10.37,2013-06-30 16:10:00,
2013-06-30 10:15:00,65.6,50.4,29.83,ESE,114,8.1,8.1,58,0.00,CLR,,0.00,WeatherDisplay:10.37,2013-06-30 16:15:00,
2013-06-30 10:20:00,65.5,48.9,29.83,East,93,11.5,11.5,55,0.00,CLR,,0.00,WeatherDisplay:10.37,2013-06-30 16:20:00,
2013-06-30 10:25:00,66.1,49.5,29.83,East,93,10.4,10.4,55,0.00,CLR,,0.00,WeatherDisplay:10.37,2013-06-30 16:25:00,
2013-06-30 10:30:00,66.8,50.6,29.83,East,100,10.4,10.4,56,0.00,CLR,,0.00,WeatherDisplay:10.37,2013-06-30 16:30:00,
2013-06-30 10:35:00,68.9,50.5,29.83,SSE,162,12.7,12.7,52,0.00,CLR,,0.00,WeatherDisplay:10.37,2013-06-30 16:35:00,
2013-06-30 10:40:00,69.1,50.2,29.83,East,96,13.8,13.8,51,0.00,CLR,,0.00,WeatherDisplay:10.37,2013-06-30 16:40:00,
2013-06-30 10:45:00,68.1,50.8,29.81,East,93,13.8,13.8,54,0.00,CLR,,0.00,WeatherDisplay:10.37,2013-06-30 16:45:00,
2013-06-30 10:50:00,68.9,52.6,29.81,ESE,108,11.5,11.5,56,0.00,CLR,,0.00,WeatherDisplay:10.37,2013-06-30 16:50:00,
2013-06-30 10:55:00,69.6,52.2,29.81,East,96,11.5,11.5,54,0.00,CLR,,0.00,WeatherDisplay:10.37,2013-06-30 16:55:00,
2013-06-30 11:00:00,69.9,52.0,29.78,ESE,104,13.8,13.8,53,0.00,CLR,,0.00,WeatherDisplay:10.37,2013-06-30 17:00:00,
2013-06-30 11:05:00,69.1,51.8,29.78,ESE,108,12.7,12.7,54,0.00,CLR,,0.00,WeatherDisplay:10.37,2013-06-30 17:05:00,
2013-06-30 11:10:00,68.1,51.8,29.78,NE,56,13.8,13.8,56,0.00,CLR,,0.00,WeatherDisplay:10.37,2013-06-30 17:10:00,
2013-06-30 11:15:00,67.1,51.4,29.85,NE,45,17.0,17.0,57,0.00,CLR,,0.00,WeatherDisplay:10.37,2013-06-30 17:15:00,
2013-06-30 11:20:00,66.0,50.8,29.85,East,79,11.5,11.5,58,0.00,CLR,,0.00,WeatherDisplay:10.37,2013-06-30 17:20:00,
2013-06-30 11:25:00,65.2,51.4,29.85,NE,45,16.1,16.1,61,0.00,CLR,,0.00,WeatherDisplay:10.37,2013-06-30 17:25:00,
2013-06-30 11:30:00,63.1,53.2,29.87,East,88,19.6,19.6,70,0.07,RA,,0.07,WeatherDisplay:10.37,2013-06-30 17:30:00,
2013-06-30 11:35:00,59.0,52.5,29.87,East,79,12.7,12.7,79,0.09,RA,,0.09,WeatherDisplay:10.37,2013-06-30 17:35:00,
2013-06-30 11:40:00,58.7,52.2,29.87,East,83,11.5,11.5,79,0.10,RA,,0.10,WeatherDisplay:10.37,2013-06-30 17:40:00,
2013-06-30 11:45:00,59.0,52.8,29.92,ENE,63,6.0,6.0,80,0.10,RA,,0.10,WeatherDisplay:10.37,2013-06-30 17:45:00,
2013-06-30 11:50:00,59.2,53.0,29.92,East,100,6.9,6.9,80,0.10,CLR,,0.10,WeatherDisplay:10.37,2013-06-30 17:50:00,
2013-06-30 11:55:00,59.6,53.4,29.92,ESE,107,5.8,5.8,80,0.10,CLR,,0.10,WeatherDisplay:10.37,2013-06-30 17:55:00,
2013-06-30 12:00:00,59.6,53.4,29.93,East,94,2.3,2.3,80,0.10,CLR,,0.10,WeatherDisplay:10.37,2013-06-30 18:00:00,
2013-06-30 12:05:00,59.8,54.0,29.93,SE,128,4.6,4.6,81,0.10,CLR,,0.10,WeatherDisplay:10.37,2013-06-30 18:05:00,
2013-06-30 12:10:00,59.6,53.1,29.93,East,100,5.8,5.8,79,0.10,CLR,,0.10,WeatherDisplay:10.37,2013-06-30 18:10:00,
2013-06-30 12:11:00,59.6,53.1,29.93,East,93,5.8,5.8,79,0.10,CLR,,0.10,WeatherDisplay:10.37,2013-06-30 18:11:00,
2013-06-30 12:16:00,59.8,53.3,29.94,ENE,69,8.1,8.1,79,0.10,CLR,,0.10,WeatherDisplay:10.37,2013-06-30 18:16:00,
2013-06-30 12:21:00,59.6,53.4,29.94,SE,128,3.0,3.0,80,0.11,RA,,0.11,WeatherDisplay:10.37,2013-06-30 18:21:00,
2013-06-30 12:26:00,59.6,53.4,29.94,SE,128,2.0,2.0,80,0.11,RA,,0.11,WeatherDisplay:10.37,2013-06-30 18:26:00,
2013-06-30 12:31:00,59.8,54.0,29.94,SE,128,1.2,1.2,81,0.03,CLR,,0.11,WeatherDisplay:10.37,2013-06-30 18:31:00,
2013-06-30 12:36:00,59.6,53.4,29.94,SE,128,3.0,3.0,80,0.01,CLR,,0.11,WeatherDisplay:10.37,2013-06-30 18:36:00,
2013-06-30 12:41:00,59.8,54.6,29.94,SE,128,0.0,0.0,83,0.01,CLR,,0.11,WeatherDisplay:10.37,2013-06-30 18:41:00,
2013-06-30 12:46:00,59.5,54.3,29.94,South,170,5.0,5.0,83,0.02,RA,,0.12,WeatherDisplay:10.37,2013-06-30 18:46:00,
2013-06-30 12:51:00,59.0,54.2,29.94,West,271,5.8,5.8,84,0.02,RA,,0.12,WeatherDisplay:10.37,2013-06-30 18:51:00,
2013-06-30 12:56:00,58.3,53.5,29.94,West,262,4.6,4.8,84,0.03,RA,,0.13,WeatherDisplay:10.37,2013-06-30 18:56:00,
2013-06-30 13:01:00,58.3,53.5,29.96,WNW,286,5.8,5.8,84,0.03,RA,,0.13,WeatherDisplay:10.37,2013-06-30 19:01:00,
2013-06-30 13:06:00,58.9,54.4,29.96,WNW,295,0.0,0.0,85,0.03,CLR,,0.13,WeatherDisplay:10.37,2013-06-30 19:06:00,
2013-06-30 13:11:00,59.6,54.4,29.96,NNW,334,2.3,0.0,83,0.03,CLR,,0.13,WeatherDisplay:10.37,2013-06-30 19:11:00,
2013-06-30 13:16:00,60.1,53.9,29.95,ESE,112,5.0,5.0,80,0.03,CLR,,0.13,WeatherDisplay:10.37,2013-06-30 19:16:00,
2013-06-30 13:21:00,60.4,54.5,29.95,East,81,5.8,5.8,81,0.02,CLR,,0.13,WeatherDisplay:10.37,2013-06-30 19:21:00,
2013-06-30 13:26:00,60.7,54.8,29.95,East,91,1.2,1.2,81,0.02,CLR,,0.13,WeatherDisplay:10.37,2013-06-30 19:26:00,
2013-06-30 13:31:00,61.2,54.3,29.93,SE,131,3.0,3.0,78,0.02,CLR,,0.13,WeatherDisplay:10.37,2013-06-30 19:31:00,
2013-06-30 13:36:00,61.8,54.2,29.93,SE,128,2.3,2.3,76,0.02,CLR,,0.13,WeatherDisplay:10.37,2013-06-30 19:36:00,
2013-06-30 13:41:00,62.4,51.7,29.93,West,265,1.2,1.2,68,0.02,CLR,,0.13,WeatherDisplay:10.37,2013-06-30 19:41:00,
2013-06-30 13:46:00,63.7,55.3,29.91,SW,235,2.3,2.3,74,0.01,CLR,,0.13,WeatherDisplay:10.37,2013-06-30 19:46:00,
2013-06-30 13:51:00,63.9,54.3,29.91,SSW,211,5.0,5.0,71,0.01,CLR,,0.13,WeatherDisplay:10.37,2013-06-30 19:51:00,
2013-06-30 13:56:00,64.0,54.4,29.91,SE,136,3.5,3.5,71,0.00,CLR,,0.13,WeatherDisplay:10.37,2013-06-30 19:56:00,
2013-06-30 14:01:00,64.3,53.9,29.90,SE,135,1.2,1.2,69,0.00,CLR,,0.13,WeatherDisplay:10.37,2013-06-30 20:01:00,
2013-06-30 14:06:00,64.2,53.0,29.90,SSW,201,5.0,5.0,67,0.00,CLR,,0.13,WeatherDisplay:10.37,2013-06-30 20:06:00,
2013-06-30 14:11:00,63.7,52.5,29.90,SSW,206,3.5,3.5,67,0.00,CLR,,0.13,WeatherDisplay:10.37,2013-06-30 20:11:00,
2013-06-30 14:16:00,63.7,52.5,29.90,SSW,206,2.3,2.3,67,0.00,CLR,,0.13,WeatherDisplay:10.37,2013-06-30 20:16:00,
2013-06-30 14:21:00,63.7,51.7,29.90,SSW,206,1.0,1.0,65,0.00,CLR,,0.13,WeatherDisplay:10.37,2013-06-30 20:21:00,
2013-06-30 14:23:00,63.5,52.3,29.90,SSW,206,2.3,2.3,67,0.00,CLR,,0.13,WeatherDisplay:10.37,2013-06-30 20:23:00,
2013-06-30 14:28:00,63.7,52.1,29.90,West,261,3.5,3.5,66,0.00,CLR,,0.13,WeatherDisplay:10.37,2013-06-30 20:28:00,
2013-06-30 14:33:00,63.7,51.7,29.90,West,261,3.5,3.5,65,0.00,CLR,,0.13,WeatherDisplay:10.37,2013-06-30 20:33:00,
2013-06-30 14:38:00,64.2,52.6,29.90,West,262,0.0,0.0,66,0.00,CLR,,0.13,WeatherDisplay:10.37,2013-06-30 20:38:00,
2013-06-30 14:43:00,64.5,51.6,29.90,NE,45,2.3,2.3,63,0.00,CLR,,0.13,WeatherDisplay:10.37,2013-06-30 20:43:00,
2013-06-30 14:48:00,64.5,53.3,29.89,East,90,5.8,5.8,67,0.00,CLR,,0.13,WeatherDisplay:10.37,2013-06-30 20:48:00,
2013-06-30 14:53:00,64.0,52.4,29.89,ENE,64,8.1,8.1,66,0.00,CLR,,0.13,WeatherDisplay:10.37,2013-06-30 20:53:00,
2013-06-30 14:58:00,63.9,52.7,29.89,East,90,6.9,6.9,67,0.00,CLR,,0.13,WeatherDisplay:10.37,2013-06-30 20:58:00,
2013-06-30 15:03:00,63.7,52.5,29.90,East,79,6.9,6.9,67,0.00,CLR,,0.13,WeatherDisplay:10.37,2013-06-30 21:03:00,
2013-06-30 15:08:00,63.4,52.2,29.90,NE,36,6.9,6.9,67,0.00,CLR,,0.13,WeatherDisplay:10.37,2013-06-30 21:08:00,
2013-06-30 15:13:00,63.2,52.9,29.90,East,97,8.1,8.1,69,0.00,CLR,,0.13,WeatherDisplay:10.37,2013-06-30 21:13:00,
2013-06-30 15:18:00,63.2,53.3,29.93,ENE,60,6.9,6.9,70,0.00,CLR,,0.13,WeatherDisplay:10.37,2013-06-30 21:18:00,
2013-06-30 15:23:00,63.2,52.9,29.93,ENE,76,6.9,6.9,69,0.00,CLR,,0.13,WeatherDisplay:10.37,2013-06-30 21:23:00,
2013-06-30 15:28:00,63.2,52.9,29.93,East,80,6.9,6.9,69,0.00,CLR,,0.13,WeatherDisplay:10.37,2013-06-30 21:28:00,
2013-06-30 15:33:00,63.2,52.9,29.93,NE,55,10.0,10.0,69,0.00,CLR,,0.13,WeatherDisplay:10.37,2013-06-30 21:33:00,
2013-06-30 15:38:00,63.2,52.1,29.93,ESE,120,6.9,6.9,67,0.00,CLR,,0.13,WeatherDisplay:10.37,2013-06-30 21:38:00,
2013-06-30 15:43:00,63.4,52.2,29.93,NE,46,6.0,6.0,67,0.00,CLR,,0.13,WeatherDisplay:10.37,2013-06-30 21:43:00,
2013-06-30 15:48:00,63.5,53.1,29.94,NE,49,5.8,5.8,69,0.00,CLR,,0.13,WeatherDisplay:10.37,2013-06-30 21:48:00,
2013-06-30 15:53:00,63.5,52.7,29.94,East,97,6.9,6.9,68,0.00,CLR,,0.13,WeatherDisplay:10.37,2013-06-30 21:53:00,
2013-06-30 15:58:00,63.5,52.3,29.94,East,97,5.8,5.8,67,0.00,CLR,,0.13,WeatherDisplay:10.37,2013-06-30 21:58:00,
2013-06-30 16:03:00,63.5,51.5,29.93,NE,49,8.1,8.1,65,0.00,CLR,,0.13,WeatherDisplay:10.37,2013-06-30 22:03:00,
2013-06-30 16:08:00,63.9,51.9,29.93,ENE,60,3.5,3.5,65,0.00,CLR,,0.13,WeatherDisplay:10.37,2013-06-30 22:08:00,
2013-06-30 16:13:00,64.2,52.6,29.93,East,80,5.8,5.8,66,0.00,CLR,,0.13,WeatherDisplay:10.37,2013-06-30 22:13:00,
2013-06-30 16:18:00,64.5,52.5,29.91,North,9,5.8,5.8,65,0.00,CLR,,0.13,WeatherDisplay:10.37,2013-06-30 22:18:00,
2013-06-30 16:23:00,65.2,53.1,29.91,ENE,63,4.6,4.6,65,0.00,CLR,,0.13,WeatherDisplay:10.37,2013-06-30 22:23:00,
2013-06-30 16:28:00,65.5,52.1,29.91,ESE,120,4.6,4.6,62,0.00,CLR,,0.13,WeatherDisplay:10.37,2013-06-30 22:28:00,
2013-06-30 16:33:00,65.5,52.6,29.90,NNE,25,3.5,3.5,63,0.00,CLR,,0.13,WeatherDisplay:10.37,2013-06-30 22:33:00,
2013-06-30 16:38:00,65.8,52.9,29.90,North,4,3.5,3.5,63,0.00,CLR,,0.13,WeatherDisplay:10.37,2013-06-30 22:38:00,
2013-06-30 16:43:00,66.1,51.8,29.90,North,352,1.2,0.0,60,0.00,CLR,,0.13,WeatherDisplay:10.37,2013-06-30 22:43:00,
2013-06-30 16:48:00,66.4,51.6,29.90,East,80,3.5,3.5,59,0.00,CLR,,0.13,WeatherDisplay:10.37,2013-06-30 22:48:00,
2013-06-30 16:53:00,66.8,52.5,29.90,North,5,5.0,5.0,60,0.00,CLR,,0.13,WeatherDisplay:10.37,2013-06-30 22:53:00,
2013-06-30 16:58:00,67.4,52.1,29.90,ENE,60,6.0,6.0,58,0.00,CLR,,0.13,WeatherDisplay:10.37,2013-06-30 22:58:00,
2013-06-30 17:03:00,67.1,52.3,29.90,SE,127,3.5,3.5,59,0.00,CLR,,0.13,WeatherDisplay:10.37,2013-06-30 23:03:00,
2013-06-30 17:08:00,66.8,52.0,29.90,SE,127,1.2,1.2,59,0.00,CLR,,0.13,WeatherDisplay:10.37,2013-06-30 23:08:00,
2013-06-30 17:13:00,66.8,50.6,29.90,ESE,122,2.3,2.3,56,0.00,CLR,,0.13,WeatherDisplay:10.37,2013-06-30 23:13:00,
2013-06-30 17:18:00,66.9,50.2,29.88,East,96,6.0,6.0,55,0.00,CLR,,0.13,WeatherDisplay:10.37,2013-06-30 23:18:00,
2013-06-30 17:23:00,66.8,51.5,29.88,NE,40,10.4,10.4,58,0.00,CLR,,0.13,WeatherDisplay:10.37,2013-06-30 23:23:00,
2013-06-30 17:28:00,66.1,51.8,29.88,NE,55,6.9,6.9,60,0.00,CLR,,0.13,WeatherDisplay:10.37,2013-06-30 23:28:00,
2013-06-30 17:33:00,65.8,52.0,29.89,NNE,24,5.0,5.0,61,0.00,CLR,,0.13,WeatherDisplay:10.37,2013-06-30 23:33:00,
2013-06-30 17:38:00,65.8,50.6,29.89,NE,53,2.3,2.3,58,0.00,CLR,,0.13,WeatherDisplay:10.37,2013-06-30 23:38:00,
2013-06-30 17:43:00,65.8,50.6,29.89,East,79,6.0,6.0,58,0.00,CLR,,0.13,WeatherDisplay:10.37,2013-06-30 23:43:00,
2013-06-30 17:48:00,66.3,50.1,29.88,NE,39,6.0,6.0,56,0.00,CLR,,0.13,WeatherDisplay:10.37,2013-06-30 23:48:00,
2013-06-30 17:53:00,66.4,50.2,29.88,North,1,8.1,8.1,56,0.00,CLR,,0.13,WeatherDisplay:10.37,2013-06-30 23:53:00,
2013-06-30 17:58:00,66.4,50.2,29.88,NNE,14,7.0,7.0,56,0.00,CLR,,0.13,WeatherDisplay:10.37,2013-06-30 23:58:00,
2013-06-30 18:03:00,66.3,50.1,29.89,North,7,8.1,8.1,56,0.00,CLR,,0.13,WeatherDisplay:10.37,2013-07-01 00:03:00,
2013-06-30 18:08:00,66.1,50.4,29.89,NNE,28,8.0,8.0,57,0.00,CLR,,0.13,WeatherDisplay:10.37,2013-07-01 00:08:00,
2013-06-30 18:13:00,65.6,50.0,29.89,NNE,19,10.4,10.4,57,0.00,CLR,,0.13,WeatherDisplay:10.37,2013-07-01 00:13:00,
2013-06-30 18:18:00,65.2,50.5,29.90,NNE,14,11.0,11.0,59,0.00,CLR,,0.13,WeatherDisplay:10.37,2013-07-01 00:18:00,
2013-06-30 18:23:00,64.7,50.0,29.90,NE,45,8.1,8.1,59,0.00,CLR,,0.13,WeatherDisplay:10.37,2013-07-01 00:23:00,
2013-06-30 18:28:00,64.3,49.7,29.90,ENE,69,5.8,5.8,59,0.00,CLR,,0.13,WeatherDisplay:10.37,2013-07-01 00:28:00,
2013-06-30 18:33:00,64.2,49.6,29.91,NE,45,4.6,4.6,59,0.00,CLR,,0.13,WeatherDisplay:10.37,2013-07-01 00:33:00,
2013-06-30 18:38:00,64.0,49.8,29.91,NE,50,6.0,6.0,60,0.00,CLR,,0.13,WeatherDisplay:10.37,2013-07-01 00:38:00,
2013-06-30 18:43:00,63.9,50.2,29.91,NE,35,6.0,6.0,61,0.00,CLR,,0.13,WeatherDisplay:10.37,2013-07-01 00:43:00,
2013-06-30 18:48:00,63.7,49.5,29.91,North,354,8.0,8.0,60,0.00,CLR,,0.13,WeatherDisplay:10.37,2013-07-01 00:48:00,
2013-06-30 18:53:00,63.7,49.5,29.91,NNE,14,5.8,5.8,60,0.00,CLR,,0.13,WeatherDisplay:10.37,2013-07-01 00:53:00,
2013-06-30 18:58:00,63.7,49.5,29.91,North,5,5.0,5.0,60,0.00,CLR,,0.13,WeatherDisplay:10.37,2013-07-01 00:58:00,
2013-06-30 19:03:00,63.5,49.8,29.93,NNE,18,5.8,5.8,61,0.00,CLR,,0.13,WeatherDisplay:10.37,2013-07-01 01:03:00,
2013-06-30 19:08:00,63.4,49.7,29.93,NNE,33,5.0,5.0,61,0.00,CLR,,0.13,WeatherDisplay:10.37,2013-07-01 01:08:00,
2013-06-30 19:13:00,63.4,50.1,29.93,NE,55,5.8,5.8,62,0.00,CLR,,0.13,WeatherDisplay:10.37,2013-07-01 01:13:00,
2013-06-30 19:18:00,63.4,49.7,29.89,NE,55,3.5,3.5,61,0.00,CLR,,0.13,WeatherDisplay:10.37,2013-07-01 01:18:00,
2013-06-30 19:23:00,63.4,49.7,29.89,NNE,28,3.5,3.5,61,0.00,CLR,,0.13,WeatherDisplay:10.37,2013-07-01 01:23:00,
2013-06-30 19:28:00,63.4,50.1,29.89,NNE,19,4.6,4.6,62,0.00,CLR,,0.13,WeatherDisplay:10.37,2013-07-01 01:28:00,
2013-06-30 19:33:00,63.4,50.6,29.91,North,355,5.0,5.0,63,0.00,CLR,,0.13,WeatherDisplay:10.37,2013-07-01 01:33:00,
2013-06-30 19:38:00,63.2,50.8,29.91,North,352,6.0,6.0,64,0.00,CLR,,0.13,WeatherDisplay:10.37,2013-07-01 01:38:00,
2013-06-30 19:43:00,63.1,51.1,29.91,North,7,4.6,4.6,65,0.00,CLR,,0.13,WeatherDisplay:10.37,2013-07-01 01:43:00,
2013-06-30 19:48:00,62.9,52.2,29.91,NNE,16,2.3,2.3,68,0.00,CLR,,0.13,WeatherDisplay:10.37,2013-07-01 01:48:00,
2013-06-30 19:53:00,62.6,52.7,29.91,NNE,15,2.3,2.3,70,0.00,CLR,,0.13,WeatherDisplay:10.37,2013-07-01 01:53:00,
2013-06-30 19:58:00,62.4,52.9,29.91,NNE,22,2.3,2.3,71,0.00,CLR,,0.13,WeatherDisplay:10.37,2013-07-01 01:58:00,
2013-06-30 20:03:00,62.1,52.6,29.88,East,87,3.5,3.5,71,0.00,CLR,,0.13,WeatherDisplay:10.37,2013-07-01 02:03:00,
2013-06-30 20:08:00,62.3,51.6,29.88,East,98,1.2,1.2,68,0.00,CLR,,0.13,WeatherDisplay:10.37,2013-07-01 02:08:00,
2013-06-30 20:13:00,62.4,52.5,29.88,ESE,122,1.2,0.0,70,0.00,CLR,,0.13,WeatherDisplay:10.37,2013-07-01 02:13:00,
2013-06-30 20:18:00,62.4,51.7,29.85,ESE,122,1.0,1.0,68,0.00,CLR,,0.13,WeatherDisplay:10.37,2013-07-01 02:18:00,
2013-06-30 20:23:00,62.6,53.8,29.85,ESE,122,2.3,2.3,73,0.00,CLR,,0.13,WeatherDisplay:10.37,2013-07-01 02:23:00,
2013-06-30 20:28:00,62.4,53.3,29.85,ESE,122,0.0,0.0,72,0.00,CLR,,0.13,WeatherDisplay:10.37,2013-07-01 02:28:00,
2013-06-30 20:33:00,62.1,53.0,29.86,ESE,122,0.0,0.0,72,0.00,CLR,,0.13,WeatherDisplay:10.37,2013-07-01 02:33:00,
2013-06-30 20:38:00,61.8,52.7,29.86,ESE,122,3.0,3.0,72,0.00,CLR,,0.13,WeatherDisplay:10.37,2013-07-01 02:38:00,
2013-06-30 20:43:00,61.3,52.2,29.86,ESE,122,2.3,2.3,72,0.00,CLR,,0.13,WeatherDisplay:10.37,2013-07-01 02:43:00,
2013-06-30 20:48:00,60.9,51.8,29.88,ESE,122,2.3,2.3,72,0.00,CLR,,0.13,WeatherDisplay:10.37,2013-07-01 02:48:00,
2013-06-30 20:53:00,60.5,51.8,29.88,ESE,122,2.3,2.3,73,0.00,CLR,,0.13,WeatherDisplay:10.37,2013-07-01 02:53:00,
2013-06-30 20:54:00,60.5,51.8,29.88,ESE,122,2.3,2.3,73,0.00,CLR,,0.13,WeatherDisplay:10.37,2013-07-01 02:54:00,
2013-06-30 20:59:00,60.2,51.5,29.88,ESE,122,0.0,0.0,73,0.00,CLR,,0.13,WeatherDisplay:10.37,2013-07-01 02:59:00,
2013-06-30 21:04:00,59.6,50.9,29.89,SSE,166,1.2,1.2,73,0.00,CLR,,0.13,WeatherDisplay:10.37,2013-07-01 03:04:00,
2013-06-30 21:09:00,59.3,51.4,29.89,SSE,168,2.3,2.3,75,0.00,CLR,,0.13,WeatherDisplay:10.37,2013-07-01 03:09:00,
2013-06-30 21:14:00,58.9,51.3,29.89,SSE,168,2.3,2.3,76,0.00,CLR,,0.13,WeatherDisplay:10.37,2013-07-01 03:14:00,
2013-06-30 21:19:00,58.6,51.4,29.88,SSE,168,3.5,3.5,77,0.00,CLR,,0.13,WeatherDisplay:10.37,2013-07-01 03:19:00,
2013-06-30 21:24:00,58.3,51.1,29.88,NNE,16,4.6,4.6,77,0.00,CLR,,0.13,WeatherDisplay:10.37,2013-07-01 03:24:00,
2013-06-30 21:29:00,58.1,51.3,29.88,North,8,3.5,3.5,78,0.00,CLR,,0.13,WeatherDisplay:10.37,2013-07-01 03:29:00,
2013-06-30 21:34:00,58.0,51.2,29.90,North,8,3.5,3.5,78,0.00,CLR,,0.13,WeatherDisplay:10.37,2013-07-01 03:34:00,
2013-06-30 21:39:00,58.0,51.2,29.90,North,8,2.3,2.3,78,0.00,CLR,,0.13,WeatherDisplay:10.37,2013-07-01 03:39:00,
2013-06-30 21:44:00,58.1,51.3,29.90,North,8,0.0,0.0,78,0.00,CLR,,0.13,WeatherDisplay:10.37,2013-07-01 03:44:00,
2013-06-30 21:49:00,58.3,51.1,29.90,NNW,327,1.2,1.2,77,0.00,CLR,,0.13,WeatherDisplay:10.37,2013-07-01 03:49:00,
2013-06-30 21:54:00,58.3,50.8,29.90,NNW,327,3.5,3.5,76,0.00,CLR,,0.13,WeatherDisplay:10.37,2013-07-01 03:54:00,
2013-06-30 21:59:00,58.1,50.6,29.90,NNW,327,1.2,1.2,76,0.00,CLR,,0.13,WeatherDisplay:10.37,2013-07-01 03:59:00,
2013-06-30 22:01:00,58.1,50.6,29.90,NNW,327,2.3,2.3,76,0.00,CLR,,0.13,WeatherDisplay:10.37,2013-07-01 04:01:00,
2013-06-30 22:02:00,58.1,50.9,29.90,NNW,327,1.2,1.2,77,0.00,CLR,,0.13,WeatherDisplay:10.37,2013-07-01 04:02:00,
2013-06-30 22:05:00,57.8,50.6,29.90,NNW,327,3.5,3.5,77,0.00,CLR,,0.13,WeatherDisplay:10.37,2013-07-01 04:05:00,
2013-06-30 22:10:00,57.6,51.5,29.90,WNW,285,4.6,4.6,80,0.00,CLR,,0.13,WeatherDisplay:10.37,2013-07-01 04:10:00,
2013-06-30 22:15:00,57.5,51.4,29.87,West,272,3.5,3.5,80,0.00,CLR,,0.13,WeatherDisplay:10.37,2013-07-01 04:15:00,
2013-06-30 22:20:00,57.5,51.4,29.87,West,272,0.0,0.0,80,0.00,CLR,,0.13,WeatherDisplay:10.37,2013-07-01 04:20:00,
2013-06-30 22:25:00,57.0,51.2,29.87,West,272,2.0,2.0,81,0.00,CLR,,0.13,WeatherDisplay:10.37,2013-07-01 04:25:00,
2013-06-30 22:30:00,56.9,51.1,29.89,West,272,2.3,2.3,81,0.00,CLR,,0.13,WeatherDisplay:10.37,2013-07-01 04:30:00,
2013-06-30 22:35:00,56.7,51.3,29.89,West,272,0.0,0.0,82,0.00,CLR,,0.13,WeatherDisplay:10.37,2013-07-01 04:35:00,
2013-06-30 22:40:00,56.7,51.3,29.89,West,272,1.2,0.0,82,0.00,CLR,,0.13,WeatherDisplay:10.37,2013-07-01 04:40:00,
2013-06-30 22:45:00,56.5,51.1,29.89,West,272,0.0,0.0,82,0.00,CLR,,0.13,WeatherDisplay:10.37,2013-07-01 04:45:00,
2013-06-30 22:50:00,56.3,51.2,29.89,West,272,0.0,0.0,83,0.00,CLR,,0.13,WeatherDisplay:10.37,2013-07-01 04:50:00,
2013-06-30 22:55:00,56.0,50.9,29.89,West,272,1.2,1.2,83,0.00,CLR,,0.13,WeatherDisplay:10.37,2013-07-01 04:55:00,
2013-06-30 23:00:00,55.9,50.8,29.88,West,272,2.3,2.3,83,0.00,CLR,,0.13,WeatherDisplay:10.37,2013-07-01 05:00:00,
2013-06-30 23:05:00,55.6,50.5,29.88,West,272,2.3,2.3,83,0.00,CLR,,0.13,WeatherDisplay:10.37,2013-07-01 05:05:00,
2013-06-30 23:10:00,55.3,50.2,29.88,West,272,3.5,3.5,83,0.00,CLR,,0.13,WeatherDisplay:10.37,2013-07-01 05:10:00,
2013-06-30 23:15:00,55.0,50.3,29.97,West,272,3.5,3.5,84,0.00,CLR,,0.13,WeatherDisplay:10.37,2013-07-01 05:15:00,
2013-06-30 23:20:00,54.8,50.4,29.97,West,272,3.5,3.5,85,0.00,CLR,,0.13,WeatherDisplay:10.37,2013-07-01 05:20:00,
2013-06-30 23:25:00,54.7,50.3,29.97,West,272,2.3,2.3,85,0.00,CLR,,0.13,WeatherDisplay:10.37,2013-07-01 05:25:00,
2013-06-30 23:30:00,54.5,50.1,29.97,West,272,2.3,2.3,85,0.00,CLR,,0.13,WeatherDisplay:10.37,2013-07-01 05:30:00,
2013-06-30 23:35:00,54.5,50.1,29.97,West,272,2.3,2.3,85,0.00,CLR,,0.13,WeatherDisplay:10.37,2013-07-01 05:35:00,
2013-06-30 23:40:00,54.2,49.8,29.97,West,272,3.5,3.5,85,0.00,CLR,,0.13,WeatherDisplay:10.37,2013-07-01 05:40:00,
2013-06-30 23:45:00,54.1,50.0,29.97,West,272,3.5,3.5,86,0.00,CLR,,0.13,WeatherDisplay:10.37,2013-07-01 05:45:00,
2013-06-30 23:50:00,53.9,49.8,29.97,WSW,255,3.5,3.5,86,0.00,CLR,,0.13,WeatherDisplay:10.37,2013-07-01 05:50:00,
2013-06-30 23:55:00,53.8,49.7,29.97,WSW,255,2.3,2.3,86,0.00,CLR,,0.13,WeatherDisplay:10.37,2013-07-01 05:55:00,